In Rescue
 
Open Full Screen Window  High Contrast Mode
Wind Gusting 00 knots
06
May 25, 2022 9:15 PM EDT
Weather Information
Wind Direction
  130 °
Wind Speed
  06 kt (7 mph)
Wind Gust
  00 kt (0 mph)
Altimeter
30.34 in
Visibility
10 SM
Temperature
16° C
61° F
Dewpoint
08° C
46° F
Humidity
59%
1hr Rain Fall
00.00 in.
24hr Rain Fall
00.00 in.
Sky Condition
Clear
VFR

METAR KUKT 260115Z AUTO 13006KT 10SM CLR 16/08 A3034 RMK A01

FAA Disclaimer: The data displayed is for advisory purposes only and is not to be used for flight planning or operations.